Time;durP1;ratioP1;P1;durP2;ratioP2;P2;SDS_P1;SDS_P2;PMS_P1;PMS_P2;Temp;Humidity;BMP_temperature;BMP_pressure;BME280_temperature;BME280_humidity;BME280_pressure;Samples;Min_cycle;Max_cycle;Signal;HPM_P1;HPM_P2
2021/09/29 00:00:09;;;;;;;18.95;11.12;;;;;;;9.69;78.85;100839.47;2104838;83;21605;-74
2021/09/29 00:03:12;;;;;;;17.62;10.45;;;;;;;9.65;78.91;100834.92;2106625;83;21129;-77
2021/09/29 00:06:14;;;;;;;18.98;11.40;;;;;;;9.58;79.06;100831.20;2099558;83;21481;-77
2021/09/29 00:09:15;;;;;;;22.45;12.28;;;;;;;9.51;79.20;100828.75;2109268;83;21523;-76
2021/09/29 00:12:17;;;;;;;24.70;13.00;;;;;;;9.43;79.26;100825.48;2103893;83;20966;-75
2021/09/29 00:15:18;;;;;;;20.88;12.18;;;;;;;9.36;79.31;100817.28;2104269;83;21026;-76
2021/09/29 00:18:21;;;;;;;18.02;12.73;;;;;;;9.32;79.34;100817.23;2103054;83;21116;-78
2021/09/29 00:21:23;;;;;;;20.40;11.83;;;;;;;9.31;79.62;100819.52;2105035;83;20998;-77
2021/09/29 00:24:24;;;;;;;14.80;12.00;;;;;;;9.28;79.63;100823.77;2104660;83;20959;-77
2021/09/29 00:27:26;;;;;;;21.60;12.58;;;;;;;9.24;79.65;100819.75;2107356;83;20994;-76
2021/09/29 00:30:30;;;;;;;16.52;11.55;;;;;;;9.24;79.66;100822.89;2102877;83;20982;-76
2021/09/29 00:33:35;;;;;;;17.85;10.38;;;;;;;9.22;79.73;100823.50;2104125;83;21049;-77
2021/09/29 00:36:39;;;;;;;17.45;11.90;;;;;;;9.18;79.76;100820.31;2103785;83;21089;-76
2021/09/29 00:39:40;;;;;;;17.05;11.83;;;;;;;9.13;79.67;100810.13;2102600;83;20996;-75
2021/09/29 00:42:42;;;;;;;22.62;13.10;;;;;;;9.09;79.76;100810.05;2103132;83;20995;-77
2021/09/29 00:45:43;;;;;;;24.77;13.93;;;;;;;9.05;79.79;100809.99;2105651;83;21017;-76
2021/09/29 00:48:45;;;;;;;19.70;13.22;;;;;;;9.00;79.87;100810.89;2105474;83;21054;-76
2021/09/29 00:51:46;;;;;;;15.95;11.50;;;;;;;8.97;80.00;100813.82;2088045;83;20995;-76
2021/09/29 00:54:48;;;;;;;18.20;12.58;;;;;;;8.91;80.08;100813.06;2081203;84;20976;-77
2021/09/29 00:57:49;;;;;;;17.82;10.63;;;;;;;8.87;80.25;100811.19;2081328;84;21049;-77
2021/09/29 01:00:51;;;;;;;18.37;12.20;;;;;;;8.82;80.60;100809.44;2088697;84;21548;-76
2021/09/29 01:03:53;;;;;;;23.67;13.72;;;;;;;8.76;80.41;100799.41;2086226;84;21026;-78
2021/09/29 01:07:21;;;;;;;31.17;15.28;;;;;;;8.71;80.50;100798.49;2082365;84;21526;-75
2021/09/29 01:10:37;;;;;;;19.42;13.28;;;;;;;8.68;80.76;100805.88;2088505;84;20955;-76
2021/09/29 01:13:44;;;;;;;16.93;13.08;;;;;;;8.63;80.81;100798.84;2080841;84;21081;-75
2021/09/29 01:16:48;;;;;;;21.65;12.25;;;;;;;8.57;80.75;100797.58;2080730;84;20992;-76
2021/09/29 01:20:03;;;;;;;20.35;12.78;;;;;;;8.52;80.93;100795.33;2083390;84;21016;-75
2021/09/29 01:23:20;;;;;;;21.05;12.75;;;;;;;8.48;81.07;100801.88;2081264;84;21357;-76
2021/09/29 01:26:25;;;;;;;20.77;13.22;;;;;;;8.41;81.01;100795.45;2079018;84;20964;-74
2021/09/29 01:29:27;;;;;;;25.40;14.47;;;;;;;8.36;81.03;100802.08;2084950;84;21026;-76
2021/09/29 01:32:30;;;;;;;22.75;13.62;;;;;;;8.35;81.16;100803.06;2072792;84;21493;-76
2021/09/29 01:35:32;;;;;;;19.17;12.93;;;;;;;8.31;81.21;100794.09;2081174;84;21022;-77
2021/09/29 01:38:35;;;;;;;26.73;14.38;;;;;;;8.27;81.12;100783.91;2083674;84;21828;-76
2021/09/29 01:41:40;;;;;;;18.60;13.53;;;;;;;8.24;81.30;100779.72;2081503;84;21000;-76
2021/09/29 01:44:41;;;;;;;22.50;13.98;;;;;;;8.20;81.49;100777.50;2085822;84;21014;-76
2021/09/29 01:47:43;;;;;;;24.55;12.88;;;;;;;8.16;81.31;100770.80;2088043;84;21010;-76
2021/09/29 01:50:46;;;;;;;18.75;13.45;;;;;;;8.11;81.34;100777.83;2080785;84;21522;-76
2021/09/29 01:53:50;;;;;;;19.35;13.10;;;;;;;8.07;81.50;100778.56;2084778;84;20987;-75
2021/09/29 01:56:53;;;;;;;23.95;14.33;;;;;;;8.04;81.48;100782.80;2084872;84;20976;-76
2021/09/29 01:59:54;;;;;;;21.35;14.75;;;;;;;8.02;81.48;100776.80;2089025;84;21097;-77
2021/09/29 02:02:56;;;;;;;27.37;14.80;;;;;;;8.01;81.46;100775.14;2087734;84;21049;-78
2021/09/29 02:05:58;;;;;;;25.02;14.25;;;;;;;8.00;81.43;100776.13;2080440;84;21037;-75
2021/09/29 02:08:59;;;;;;;22.80;13.68;;;;;;;8.00;81.43;100771.33;2076659;84;21127;-76
2021/09/29 02:12:00;;;;;;;20.88;13.53;;;;;;;7.97;81.43;100777.71;2088827;84;21042;-73
2021/09/29 02:15:05;;;;;;;18.55;14.25;;;;;;;7.94;81.59;100762.13;2086754;84;20967;-75
2021/09/29 02:18:07;;;;;;;22.07;13.48;;;;;;;7.92;81.59;100757.45;2084337;84;21054;-77
2021/09/29 02:21:08;;;;;;;23.60;14.90;;;;;;;7.91;81.63;100757.57;2079583;84;20996;-77
2021/09/29 02:24:10;;;;;;;23.40;14.33;;;;;;;7.88;81.63;100756.03;2086385;84;21054;-76
2021/09/29 02:27:12;;;;;;;22.17;13.88;;;;;;;7.87;81.73;100764.94;2085774;84;21021;-77
2021/09/29 02:30:14;;;;;;;19.48;13.65;;;;;;;7.86;81.71;100762.78;2084161;84;21073;-75
2021/09/29 02:33:16;;;;;;;19.62;13.55;;;;;;;7.84;81.65;100763.89;2089199;84;20998;-74
2021/09/29 02:36:17;;;;;;;19.77;14.38;;;;;;;7.81;81.84;100760.20;2087150;83;21043;-78
2021/09/29 02:39:19;;;;;;;22.80;13.55;;;;;;;7.81;82.03;100762.84;2086262;84;20986;-75
2021/09/29 02:42:20;;;;;;;20.65;14.68;;;;;;;7.80;81.99;100755.89;2082060;84;20988;-77
2021/09/29 02:45:22;;;;;;;21.27;13.90;;;;;;;7.79;81.98;100751.06;2093219;84;21436;-76
2021/09/29 02:48:23;;;;;;;19.60;13.43;;;;;;;7.75;81.87;100743.07;2084699;84;21030;-76
2021/09/29 02:51:25;;;;;;;25.10;13.78;;;;;;;7.72;81.82;100743.83;2087561;83;21058;-77
2021/09/29 02:54:26;;;;;;;20.62;13.25;;;;;;;7.68;81.84;100745.87;2093176;83;21027;-75
2021/09/29 02:57:28;;;;;;;23.80;14.78;;;;;;;7.68;81.82;100741.91;2085169;84;21057;-76
2021/09/29 03:00:29;;;;;;;20.05;14.15;;;;;;;7.64;81.75;100743.16;2085312;84;21019;-74
2021/09/29 03:03:32;;;;;;;21.12;13.10;;;;;;;7.57;81.86;100734.08;2084204;84;21067;-76
2021/09/29 03:06:33;;;;;;;20.82;14.38;;;;;;;7.51;82.01;100736.77;2081983;84;21050;-76
2021/09/29 03:09:35;;;;;;;24.20;14.25;;;;;;;7.44;82.02;100733.48;2081530;84;21014;-77
2021/09/29 03:12:36;;;;;;;19.77;13.98;;;;;;;7.39;82.12;100735.19;2082655;84;21526;-77
2021/09/29 03:15:39;;;;;;;21.12;14.75;;;;;;;7.38;82.24;100733.03;2081636;84;21002;-75
2021/09/29 03:18:41;;;;;;;23.60;14.35;;;;;;;7.39;82.31;100733.86;2080661;84;21054;-75
2021/09/29 03:21:42;;;;;;;23.10;14.55;;;;;;;7.38;82.31;100730.89;2087601;83;20957;-76
2021/09/29 03:24:44;;;;;;;22.50;15.00;;;;;;;7.39;82.26;100733.86;2083462;84;20999;-76
2021/09/29 03:27:45;;;;;;;20.85;14.55;;;;;;;7.39;82.28;100731.23;2087754;84;21043;-77
2021/09/29 03:30:47;;;;;;;22.55;14.78;;;;;;;7.40;82.39;100731.56;2091736;84;21029;-77
2021/09/29 03:33:48;;;;;;;22.62;13.90;;;;;;;7.39;82.37;100731.23;2083935;84;21038;-75
2021/09/29 03:36:50;;;;;;;22.65;14.55;;;;;;;7.38;82.37;100729.56;2087250;84;21549;-78
2021/09/29 03:39:51;;;;;;;21.20;14.43;;;;;;;7.39;82.43;100735.19;2086321;83;21061;-76
2021/09/29 03:42:53;;;;;;;21.90;14.47;;;;;;;7.38;82.42;100733.03;2087621;84;20975;-75
2021/09/29 03:45:54;;;;;;;20.80;13.15;;;;;;;7.39;82.49;100729.42;2086388;84;21086;-76
2021/09/29 03:48:56;;;;;;;22.52;13.68;;;;;;;7.42;82.54;100730.96;2084976;84;21098;-75
2021/09/29 03:51:57;;;;;;;19.77;13.58;;;;;;;7.42;82.56;100728.32;2090062;84;21039;-75
2021/09/29 03:54:59;;;;;;;22.22;15.23;;;;;;;7.42;82.61;100725.68;2084168;84;21061;-75
2021/09/29 03:58:01;;;;;;;22.55;14.43;;;;;;;7.41;82.72;100728.81;2080455;84;21723;-78
2021/09/29 04:01:02;;;;;;;19.77;13.65;;;;;;;7.41;82.81;100722.21;2083763;84;21343;-74
2021/09/29 04:04:04;;;;;;;21.50;14.15;;;;;;;7.39;82.96;100720.17;2085522;84;20996;-77
2021/09/29 04:07:06;;;;;;;21.85;13.25;;;;;;;7.35;82.93;100716.14;2086826;84;21031;-76
2021/09/29 04:10:10;;;;;;;23.70;15.25;;;;;;;7.32;83.06;100721.69;2085315;84;21538;-75
2021/09/29 04:13:11;;;;;;;20.82;14.63;;;;;;;7.29;83.10;100714.48;2089120;84;21062;-75
2021/09/29 04:16:13;;;;;;;26.33;15.25;;;;;;;7.28;83.19;100712.83;2087360;84;21043;-75
2021/09/29 04:19:16;;;;;;;21.17;13.72;;;;;;;7.28;83.03;100711.50;2088612;84;20974;-75
2021/09/29 04:22:17;;;;;;;24.45;15.05;;;;;;;7.25;83.00;100706.49;2083699;84;20994;-75
2021/09/29 04:25:19;;;;;;;19.75;14.73;;;;;;;7.22;82.94;100710.23;2087309;84;21490;-77
2021/09/29 04:28:21;;;;;;;20.90;14.33;;;;;;;7.19;82.88;100707.36;2088463;84;21054;-76
2021/09/29 04:31:23;;;;;;;18.30;14.03;;;;;;;7.17;82.84;100709.77;2084638;84;21434;-75
2021/09/29 04:34:24;;;;;;;22.52;13.62;;;;;;;7.18;82.81;100707.51;2089751;84;20984;-77
2021/09/29 04:37:26;;;;;;;20.10;12.68;;;;;;;7.18;82.71;100716.26;2092753;84;21036;-75
2021/09/29 04:40:27;;;;;;;18.60;11.68;;;;;;;7.20;82.55;100714.80;2082398;83;21085;-76
2021/09/29 04:43:29;;;;;;;20.80;12.78;;;;;;;7.22;82.30;100719.47;2084872;84;21004;-78
2021/09/29 04:46:31;;;;;;;20.08;13.13;;;;;;;7.18;81.84;100710.98;2079070;84;21042;-74
2021/09/29 04:49:32;;;;;;;18.82;11.97;;;;;;;7.07;81.89;100708.41;2078225;84;21097;-76
2021/09/29 04:52:34;;;;;;;23.12;13.62;;;;;;;7.01;81.86;100707.62;2081728;84;21034;-74
2021/09/29 04:55:36;;;;;;;18.60;13.35;;;;;;;6.94;82.04;100711.23;2090285;84;21046;-76
2021/09/29 04:58:37;;;;;;;21.65;14.18;;;;;;;6.89;82.12;100705.50;2088085;84;20990;-74
2021/09/29 05:01:41;;;;;;;21.42;13.93;;;;;;;6.90;82.29;100710.32;2078134;84;21513;-75
2021/09/29 05:04:42;;;;;;;19.75;13.38;;;;;;;6.94;82.33;100717.83;2059963;84;21073;-76
2021/09/29 05:07:49;;;;;;;20.32;13.08;;;;;;;7.00;82.34;100709.05;2079601;84;21000;-75
2021/09/29 05:11:02;;;;;;;23.10;14.45;;;;;;;7.01;82.33;100706.30;2087239;84;21074;-77
2021/09/29 05:14:03;;;;;;;22.27;14.05;;;;;;;7.05;82.38;100702.42;2055226;84;21096;-76
2021/09/29 05:17:05;;;;;;;25.88;15.32;;;;;;;7.18;82.51;100699.59;2091473;84;20983;-77
2021/09/29 05:20:07;;;;;;;21.23;12.82;;;;;;;7.34;82.48;100696.45;2081809;84;21037;-78
2021/09/29 05:23:09;;;;;;;19.98;13.80;;;;;;;7.60;82.61;100700.34;2083926;84;20979;-77
2021/09/29 05:26:10;;;;;;;23.05;13.75;;;;;;;7.99;82.63;100703.08;2085656;84;20990;-77
2021/09/29 05:29:12;;;;;;;28.15;12.90;;;;;;;8.47;82.45;100710.27;2081113;84;21035;-76
2021/09/29 05:32:14;;;;;;;19.62;12.85;;;;;;;8.92;81.95;100714.98;2082089;84;21635;-76
2021/09/29 05:35:15;;;;;;;17.55;12.00;;;;;;;9.39;81.80;100709.72;2081395;84;21030;-79
2021/09/29 05:38:17;;;;;;;18.00;11.53;;;;;;;9.87;81.27;100711.33;2091885;84;21008;-79
2021/09/29 05:41:18;;;;;;;18.40;10.88;;;;;;;10.31;80.72;100702.23;2080980;84;21002;-79
2021/09/29 05:44:20;;;;;;;19.37;10.93;;;;;;;10.72;79.82;100702.58;2085840;84;21721;-79
2021/09/29 05:47:21;;;;;;;18.23;11.38;;;;;;;11.05;79.13;100702.02;2089798;84;21505;-79
2021/09/29 05:50:23;;;;;;;17.12;10.78;;;;;;;11.37;79.04;100698.72;2084048;84;21067;-79
2021/09/29 05:53:24;;;;;;;15.53;10.48;;;;;;;11.59;77.98;100672.91;2057699;84;21819;-79
2021/09/29 05:56:26;;;;;;;14.18;10.38;;;;;;;12.03;77.50;100696.70;2057074;84;21020;-79
2021/09/29 05:59:27;;;;;;;16.48;10.03;;;;;;;12.34;76.87;100693.45;2059884;84;21060;-80
2021/09/29 06:02:29;;;;;;;14.43;9.60;;;;;;;12.49;75.86;100694.45;2060371;84;21003;-79
2021/09/29 06:05:30;;;;;;;12.53;9.33;;;;;;;12.77;75.37;100688.80;2058103;84;21039;-78
2021/09/29 06:08:32;;;;;;;15.32;9.25;;;;;;;12.76;74.26;100679.98;2057714;84;21074;-78
2021/09/29 06:11:34;;;;;;;13.75;9.33;;;;;;;12.90;74.25;100688.31;2063575;84;21482;-77
2021/09/29 06:14:36;;;;;;;13.22;9.30;;;;;;;13.13;74.06;100681.27;2055856;84;21603;-77
2021/09/29 06:17:40;;;;;;;11.50;8.50;;;;;;;13.43;73.91;100686.88;2061120;84;21520;-78
2021/09/29 06:20:50;;;;;;;11.40;8.45;;;;;;;13.63;72.93;100681.50;2061029;84;21029;-77
2021/09/29 06:23:51;;;;;;;13.48;9.20;;;;;;;13.67;71.59;100673.97;2061334;84;21043;-79
2021/09/29 06:26:54;;;;;;;17.55;9.00;;;;;;;13.78;70.39;100672.25;2062539;84;21084;-78
2021/09/29 06:29:55;;;;;;;18.30;9.50;;;;;;;13.62;69.61;100666.98;2060339;84;20997;-77
2021/09/29 06:32:56;;;;;;;14.33;8.80;;;;;;;13.44;69.85;100669.90;2054405;84;20974;-77
2021/09/29 06:35:59;;;;;;;14.30;8.80;;;;;;;13.15;67.87;100674.42;2063317;84;21050;-78
2021/09/29 06:39:00;;;;;;;14.65;8.28;;;;;;;12.94;68.67;100671.80;2054567;84;21032;-77
2021/09/29 06:42:02;;;;;;;13.80;7.95;;;;;;;12.99;69.10;100664.66;2067679;84;21041;-79
2021/09/29 06:45:05;;;;;;;10.45;7.70;;;;;;;12.89;67.04;100665.32;2058600;84;20954;-77
2021/09/29 06:48:08;;;;;;;13.03;7.28;;;;;;;12.66;67.13;100665.17;2054612;84;21739;-79
2021/09/29 06:51:09;;;;;;;15.08;7.97;;;;;;;12.75;68.91;100665.50;2057942;84;21027;-78
2021/09/29 06:54:11;;;;;;;12.07;7.55;;;;;;;12.71;68.03;100669.51;2062250;84;21098;-77
2021/09/29 06:57:13;;;;;;;12.47;8.03;;;;;;;12.70;67.29;100680.66;2057632;84;21033;-78
2021/09/29 07:00:15;;;;;;;10.75;7.45;;;;;;;12.81;68.18;100667.98;2065923;84;21034;-77
2021/09/29 07:03:17;;;;;;;14.80;8.08;;;;;;;12.97;67.29;100671.47;2064357;84;20997;-78
2021/09/29 07:06:18;;;;;;;12.75;8.08;;;;;;;12.82;66.78;100667.84;2060557;84;21037;-76
2021/09/29 07:09:20;;;;;;;12.75;8.15;;;;;;;12.87;66.67;100662.84;2059217;84;21041;-77
2021/09/29 07:12:21;;;;;;;13.32;8.30;;;;;;;12.83;67.15;100670.82;2059319;84;20982;-78
2021/09/29 07:15:23;;;;;;;12.88;7.53;;;;;;;12.77;66.52;100666.17;2055680;84;21033;-78
2021/09/29 07:18:28;;;;;;;11.60;8.28;;;;;;;12.82;66.77;100668.34;2058395;84;21009;-77
2021/09/29 07:21:27;;;;;;;12.15;8.20;;;;;;;12.79;67.18;100664.18;2064161;84;20999;-78
2021/09/29 07:24:28;;;;;;;12.18;8.13;;;;;;;13.03;67.21;100665.96;2062825;84;20981;-78
2021/09/29 07:27:30;;;;;;;15.53;7.58;;;;;;;12.98;65.51;100662.50;2059823;84;21129;-76
2021/09/29 07:30:33;;;;;;;12.85;8.33;;;;;;;13.08;65.80;100665.47;2055259;84;21008;-77
2021/09/29 07:33:35;;;;;;;11.75;8.45;;;;;;;13.21;65.40;100655.94;2061129;84;21017;-77
2021/09/29 07:36:41;;;;;;;12.18;8.10;;;;;;;12.91;65.09;100642.02;2062730;84;21025;-77
2021/09/29 07:39:40;;;;;;;15.03;8.53;;;;;;;12.64;65.42;100644.54;2057313;84;21033;-77
2021/09/29 07:42:42;;;;;;;20.10;8.30;;;;;;;12.37;65.66;100623.10;2064764;84;21027;-78
2021/09/29 07:45:43;;;;;;;12.65;7.35;;;;;;;12.17;66.27;100629.24;2055106;84;21653;-78
2021/09/29 07:48:46;;;;;;;12.75;9.00;;;;;;;11.93;66.23;100626.86;2063134;84;21522;-77
2021/09/29 07:51:50;;;;;;;16.05;9.60;;;;;;;11.77;67.36;100626.78;2051962;84;21519;-77
2021/09/29 07:54:52;;;;;;;16.02;9.18;;;;;;;11.94;68.09;100627.69;2057253;84;20983;-76
2021/09/29 07:57:54;;;;;;;13.98;8.65;;;;;;;12.09;67.54;100627.39;2055883;84;21037;-78
2021/09/29 08:00:57;;;;;;;12.50;8.68;;;;;;;12.11;67.06;100626.23;2060742;84;21002;-78
2021/09/29 08:03:58;;;;;;;12.05;8.83;;;;;;;12.24;67.45;100624.41;2056934;84;21590;-74
2021/09/29 08:07:00;;;;;;;14.50;8.13;;;;;;;12.43;68.06;100613.12;2059535;84;21010;-78
2021/09/29 08:10:02;;;;;;;15.50;9.18;;;;;;;12.78;67.52;100613.23;2066013;84;21050;-77
2021/09/29 08:13:04;;;;;;;13.60;8.93;;;;;;;12.98;67.25;100613.72;2066907;84;20974;-78
2021/09/29 08:16:05;;;;;;;11.88;7.30;;;;;;;13.14;66.66;100610.98;2059528;84;21093;-77
2021/09/29 08:19:07;;;;;;;15.93;9.15;;;;;;;13.23;66.27;100612.64;2059337;84;21014;-77
2021/09/29 08:22:10;;;;;;;13.88;8.03;;;;;;;13.26;66.01;100610.14;2060924;84;20987;-76
2021/09/29 08:28:53;;;;;;;16.62;9.60;;;;;;;13.36;65.89;100602.78;2059566;84;21009;-78
2021/09/29 08:34:42;;;;;;;15.78;9.88;;;;;;;13.52;65.53;100603.73;2054732;84;21070;-79
2021/09/29 08:37:43;;;;;;;12.98;8.68;;;;;;;13.68;65.13;100595.63;2058687;84;21090;-78
2021/09/29 08:40:55;;;;;;;19.05;10.25;;;;;;;13.93;65.05;100596.30;2058727;84;21055;-77
2021/09/29 08:47:08;;;;;;;13.93;9.25;;;;;;;13.87;65.10;100577.84;2066592;84;21475;-77
2021/09/29 08:57:09;;;;;;;13.53;9.98;;;;;;;13.96;64.17;100575.12;2063740;85;20994;-76
2021/09/29 09:14:50;;;;;;;13.60;8.78;;;;;;;13.74;63.19;100586.95;2055840;85;21034;-76
2021/09/29 09:16:37;;;;;;;19.98;9.90;;;;;;;14.01;63.59;100587.42;2055561;85;21031;-77
2021/09/29 09:19:39;;;;;;;12.60;9.33;;;;;;;13.92;63.75;100577.83;2051998;85;21111;-77
2021/09/29 09:22:41;;;;;;;18.42;9.78;;;;;;;13.82;63.33;100580.20;2055868;85;21073;-77
2021/09/29 09:25:44;;;;;;;16.25;10.05;;;;;;;13.79;64.32;100580.55;2054934;85;20986;-75
2021/09/29 09:28:48;;;;;;;16.73;10.00;;;;;;;13.79;63.73;100571.73;2062849;85;21064;-75
2021/09/29 09:31:49;;;;;;;15.18;9.48;;;;;;;13.78;63.93;100576.23;2057450;85;21037;-78
2021/09/29 09:35:06;;;;;;;15.20;10.53;;;;;;;13.87;64.76;100576.50;2055014;85;21536;-77
2021/09/29 09:38:19;;;;;;;15.08;10.25;;;;;;;13.92;63.75;100573.83;2057495;85;20958;-77
2021/09/29 09:41:20;;;;;;;16.45;8.98;;;;;;;13.88;63.95;100570.66;2060471;85;21010;-78
2021/09/29 09:44:26;;;;;;;15.15;10.13;;;;;;;13.70;63.72;100578.95;2065778;85;21010;-77
2021/09/29 09:47:33;;;;;;;16.60;10.45;;;;;;;13.62;64.20;100564.33;2057496;84;21617;-78
2021/09/29 09:50:35;;;;;;;18.27;9.80;;;;;;;13.77;63.94;100563.92;2059090;85;21643;-77
2021/09/29 09:53:36;;;;;;;16.80;10.08;;;;;;;13.96;64.45;100570.61;2076184;84;21572;-77
2021/09/29 09:56:42;;;;;;;18.85;10.70;;;;;;;14.03;63.92;100565.41;2085566;84;21072;-77
2021/09/29 09:59:51;;;;;;;13.48;9.33;;;;;;;14.15;63.74;100563.14;2092322;84;21047;-77
2021/09/29 10:02:55;;;;;;;;;;;;;;;14.30;63.70;100558.66;2088130;84;21037;-76
2021/09/29 10:05:57;;;;;;;14.38;10.08;;;;;;;14.54;63.75;100545.64;2090283;84;20120;-78
2021/09/29 10:09:02;;;;;;;14.33;9.18;;;;;;;14.62;63.68;100540.73;2084243;84;21053;-78
2021/09/29 10:26:09;;;;;;;17.12;8.68;;;;;;;14.59;62.93;100539.77;2084108;84;21082;-78
2021/09/29 10:29:12;;;;;;;15.35;8.65;;;;;;;14.68;62.63;100538.14;2086358;84;21050;-77
2021/09/29 10:32:31;;;;;;;10.53;7.80;;;;;;;14.58;61.55;100533.56;2081444;84;21049;-74
2021/09/29 10:35:43;;;;;;;12.98;8.65;;;;;;;14.45;62.86;100534.19;2079106;84;22272;-76
2021/09/29 10:41:52;;;;;;;15.20;7.95;;;;;;;14.51;62.77;100529.44;2087434;83;21058;-75
2021/09/29 10:48:18;;;;;;;11.60;7.70;;;;;;;14.68;62.37;100519.45;2083084;84;21002;-76
2021/09/29 10:51:21;;;;;;;;;;;;;;;14.70;62.82;100521.44;2083184;84;21037;-76
2021/09/29 11:31:18;;;;;;;12.30;8.88;;;;;;;15.43;60.31;100500.16;2066974;84;21597;-77
2021/09/29 11:34:22;;;;;;;20.80;9.35;;;;;;;15.42;60.63;100499.81;2069642;84;21050;-79
2021/09/29 12:10:17;;;;;;;16.65;9.30;;;;;;;15.05;61.35;100482.13;2078193;84;21065;-76
2021/09/29 12:13:15;;;;;;;20.20;10.00;;;;;;;15.04;61.46;100482.63;2083012;84;21042;-77
2021/09/29 12:16:34;;;;;;;15.45;9.48;;;;;;;15.17;60.69;100481.43;2084966;84;21532;-76
2021/09/29 12:19:41;;;;;;;15.55;9.63;;;;;;;15.33;60.93;100474.22;2081881;84;21573;-76
2021/09/29 12:22:49;;;;;;;14.98;9.65;;;;;;;15.58;61.93;100472.02;2081579;84;21059;-77
2021/09/29 12:26:05;;;;;;;13.08;9.90;;;;;;;15.93;61.63;100458.77;2083261;84;21070;-77
2021/09/29 12:29:21;;;;;;;12.28;8.80;;;;;;;15.99;60.71;100469.52;2077184;84;21573;-77
2021/09/29 12:32:32;;;;;;;16.90;9.60;;;;;;;15.84;60.81;100462.91;2072766;84;21074;-78
2021/09/29 12:35:39;;;;;;;15.05;9.18;;;;;;;15.81;60.79;100459.29;2086132;84;21071;-78
2021/09/29 12:38:42;;;;;;;13.95;9.25;;;;;;;15.78;60.86;100454.84;2077879;84;21058;-78
2021/09/29 12:41:51;;;;;;;12.53;9.20;;;;;;;15.62;60.30;100455.38;2084217;84;21695;-78
2021/09/29 12:44:53;;;;;;;16.37;10.58;;;;;;;15.49;60.90;100449.09;2086314;84;21000;-79
2021/09/29 12:47:54;;;;;;;15.65;10.40;;;;;;;15.46;61.26;100447.63;2076218;84;21028;-78
2021/09/29 12:51:03;;;;;;;18.00;10.00;;;;;;;15.45;61.14;100449.45;2079564;84;21107;-77
2021/09/29 12:54:06;;;;;;;18.23;10.48;;;;;;;15.41;61.20;100448.19;2082566;83;21110;-78
2021/09/29 12:57:08;;;;;;;13.22;9.40;;;;;;;15.33;61.69;100436.79;2068874;84;21121;-76
2021/09/29 13:00:10;;;;;;;13.53;9.25;;;;;;;15.36;61.85;100438.56;2075035;84;21425;-78
2021/09/29 13:03:13;;;;;;;16.82;9.40;;;;;;;15.39;62.13;100442.70;2075959;84;21026;-78
2021/09/29 13:06:14;;;;;;;14.95;9.48;;;;;;;15.37;62.06;100432.70;2076348;84;21567;-76
2021/09/29 13:09:16;;;;;;;15.75;9.23;;;;;;;15.26;61.71;100435.40;2081873;84;20988;-78
2021/09/29 13:12:18;;;;;;;21.95;9.80;;;;;;;15.16;62.19;100439.70;2074615;84;21558;-78
2021/09/29 13:15:22;;;;;;;17.12;9.15;;;;;;;15.12;62.53;100435.76;2072440;84;21506;-77
2021/09/29 13:18:43;;;;;;;16.80;10.48;;;;;;;15.03;62.43;100442.20;2076694;84;21084;-76
2021/09/29 13:21:38;;;;;;;13.75;9.58;;;;;;;14.98;62.11;100433.95;2071728;84;21060;-78
2021/09/29 13:25:01;;;;;;;13.30;8.83;;;;;;;14.89;62.58;100444.41;2071357;84;21770;-78
2021/09/29 13:37:56;;;;;;;14.83;9.80;;;;;;;14.97;63.22;100447.80;2077288;84;21056;-77
2021/09/29 13:40:57;;;;;;;18.30;10.03;;;;;;;14.95;63.31;100444.50;2076694;84;21484;-79
2021/09/29 13:43:59;;;;;;;17.87;11.90;;;;;;;14.96;63.56;100447.48;2076851;84;21594;-77
2021/09/29 13:47:01;;;;;;;16.02;9.50;;;;;;;14.96;63.72;100448.83;2077782;84;21547;-78
2021/09/29 13:50:03;;;;;;;18.48;10.58;;;;;;;15.01;64.07;100448.27;2068631;84;21038;-77
2021/09/29 13:53:06;;;;;;;17.23;11.10;;;;;;;15.02;63.75;100446.73;2076401;84;21520;-77
2021/09/29 13:56:10;;;;;;;16.55;10.90;;;;;;;14.95;63.93;100449.84;2076534;84;21050;-78
2021/09/29 13:59:33;;;;;;;20.05;10.78;;;;;;;14.94;64.10;100439.33;2077389;84;21023;-78
2021/09/29 14:02:44;;;;;;;16.52;10.32;;;;;;;14.95;64.24;100440.50;2081649;84;21025;-77
2021/09/29 14:29:08;;;;;;;31.97;21.20;;;;;;;14.98;65.85;100456.66;2080484;84;21025;-79
2021/09/29 14:32:05;;;;;;;28.52;20.05;;;;;;;14.98;66.28;100460.67;2066374;84;21636;-79
2021/09/29 14:34:55;;;;;;;35.40;23.40;;;;;;;14.97;66.14;100454.48;2079233;84;21015;-80
2021/09/29 14:37:58;;;;;;;40.33;22.67;;;;;;;14.93;66.28;100457.73;2075903;84;21062;-79
2021/09/29 14:40:59;;;;;;;34.30;23.67;;;;;;;14.85;66.38;100452.48;2077037;84;21718;-79
2021/09/29 14:44:01;;;;;;;34.85;22.27;;;;;;;14.72;66.63;100452.62;2071279;84;21068;-80
2021/09/29 14:47:10;;;;;;;32.63;21.70;;;;;;;14.68;66.99;100451.86;2086943;84;21062;-79
2021/09/29 14:50:08;;;;;;;34.30;21.87;;;;;;;14.64;67.28;100455.89;2073926;84;21072;-80
2021/09/29 14:53:09;;;;;;;34.75;22.98;;;;;;;14.60;67.34;100459.96;2083672;84;21509;-78
2021/09/29 14:56:11;;;;;;;34.63;23.85;;;;;;;14.59;67.44;100467.16;2083432;84;21562;-79
2021/09/29 14:59:13;;;;;;;37.95;24.43;;;;;;;14.59;67.63;100463.15;2086815;84;20995;-78
2021/09/29 15:02:16;;;;;;;39.92;25.30;;;;;;;14.54;67.69;100469.54;2084667;84;21097;-78
2021/09/29 15:05:17;;;;;;;40.65;25.60;;;;;;;14.50;68.01;100466.86;2078621;84;21343;-79
2021/09/29 15:08:19;;;;;;;42.03;26.62;;;;;;;14.48;68.03;100466.24;2084729;84;21494;-78
2021/09/29 15:11:21;;;;;;;36.45;26.93;;;;;;;14.45;68.21;100462.61;2075752;84;20966;-78
2021/09/29 15:17:35;;;;;;;44.30;29.72;;;;;;;14.33;68.49;100468.40;2085699;83;21062;-79
2021/09/29 15:30:25;;;;;;;56.40;33.53;;;;;;;14.02;69.79;100453.01;2203852;79;21038;-76
2021/09/29 15:53:20;;;;;;;63.30;38.33;;;;;;;13.54;70.71;100467.89;2203744;79;21003;-78
2021/09/29 16:05:36;;;;;;;70.28;43.10;;;;;;;13.26;70.83;100478.23;2202811;79;21013;-78
2021/09/29 16:18:16;;;;;;;70.55;43.52;;;;;;;13.03;71.12;100490.14;2139774;79;21437;-78
2021/09/29 16:31:15;;;;;;;;;;;;;;;12.87;71.32;100508.37;2206805;79;20985;-79
2021/09/29 16:34:19;;;;;;;61.13;38.33;;;;;;;12.81;71.43;100500.23;2205032;79;20471;-79
2021/09/29 16:37:20;;;;;;;57.35;37.35;;;;;;;12.75;71.53;100509.73;2201490;79;21002;-79
2021/09/29 16:40:22;;;;;;;57.75;37.60;;;;;;;12.71;71.58;100513.24;2202438;79;20963;-78
2021/09/29 16:43:24;;;;;;;61.68;38.95;;;;;;;12.71;71.71;100506.59;2196247;79;21003;-79
2021/09/29 16:46:30;;;;;;;57.15;36.23;;;;;;;12.71;71.74;100516.41;2200178;79;21004;-79
2021/09/29 16:49:29;;;;;;;53.30;35.45;;;;;;;12.68;71.83;100524.75;2201776;79;21077;-79
2021/09/29 16:55:38;;;;;;;62.27;40.78;;;;;;;12.56;72.05;100525.11;2206306;79;21054;-80
2021/09/29 16:58:59;;;;;;;64.80;42.10;;;;;;;12.54;72.10;100523.61;2197083;79;20997;-79
2021/09/29 17:01:59;;;;;;;63.17;40.08;;;;;;;12.51;72.32;100516.79;2200029;79;21648;-81
2021/09/29 17:05:04;;;;;;;65.25;40.43;;;;;;;12.41;72.44;100525.45;2206819;79;20950;-80
2021/09/29 17:08:07;;;;;;;60.17;38.08;;;;;;;12.34;72.57;100515.16;2191997;79;21518;-80
2021/09/29 17:11:15;;;;;;;59.53;37.42;;;;;;;12.32;72.83;100511.33;2202302;79;21002;-80
2021/09/29 17:14:17;;;;;;;58.60;36.88;;;;;;;12.30;72.82;100512.48;2199087;79;21015;-80
2021/09/29 17:17:19;;;;;;;68.22;41.60;;;;;;;12.24;72.99;100514.50;2205127;79;21061;-79
2021/09/29 17:20:21;;;;;;;65.80;41.65;;;;;;;12.20;73.10;100513.19;2200292;79;21441;-80
2021/09/29 17:23:23;;;;;;;69.40;42.13;;;;;;;12.12;73.29;100514.02;2198107;79;21493;-79
2021/09/29 17:26:25;;;;;;;71.33;42.38;;;;;;;12.07;73.33;100523.81;2206540;79;21006;-80
2021/09/29 17:29:27;;;;;;;73.75;40.95;;;;;;;12.07;73.47;100521.16;2204578;79;21004;-77
2021/09/29 17:36:00;;;;;;;66.77;37.40;;;;;;;12.04;73.72;100530.80;2206906;79;21063;-76
2021/09/29 17:52:18;;;;;;;68.85;41.00;;;;;;;12.01;74.08;100532.97;2197560;79;20984;-78
2021/09/29 17:55:17;;;;;;;70.95;40.55;;;;;;;11.97;74.26;100537.80;2200106;79;20962;-79